sensor_id;sensor_type;location;lat;lon;timestamp;pressure;altitude;pressure_sealevel;temperature;humidity
11971;BME280;6045;42.682;23.294;2023-05-02T00:01:52;94947.25;;;13.92;66.22
11971;BME280;6045;42.682;23.294;2023-05-02T00:04:19;94944.47;;;13.87;65.90
11971;BME280;6045;42.682;23.294;2023-05-02T00:06:47;94947.38;;;13.85;66.33
11971;BME280;6045;42.682;23.294;2023-05-02T00:09:14;94943.69;;;14.03;65.68
11971;BME280;6045;42.682;23.294;2023-05-02T00:11:41;94943.66;;;13.86;66.38
11971;BME280;6045;42.682;23.294;2023-05-02T00:14:08;94936.13;;;13.71;66.70
11971;BME280;6045;42.682;23.294;2023-05-02T00:16:35;94941.19;;;13.68;66.75
11971;BME280;6045;42.682;23.294;2023-05-02T00:19:01;94944.13;;;13.83;66.43
11971;BME280;6045;42.682;23.294;2023-05-02T00:21:28;94939.84;;;13.82;66.34
11971;BME280;6045;42.682;23.294;2023-05-02T00:23:57;94939.94;;;13.87;66.62
11971;BME280;6045;42.682;23.294;2023-05-02T00:26:24;94953.59;;;13.86;66.35
11971;BME280;6045;42.682;23.294;2023-05-02T00:28:51;94943.03;;;13.96;66.35
11971;BME280;6045;42.682;23.294;2023-05-02T00:31:17;94947.59;;;13.95;66.41
11971;BME280;6045;42.682;23.294;2023-05-02T00:33:44;94958.00;;;13.92;66.51
11971;BME280;6045;42.682;23.294;2023-05-02T00:36:14;94958.50;;;13.89;66.57
11971;BME280;6045;42.682;23.294;2023-05-02T00:38:41;94962.00;;;13.89;66.41
11971;BME280;6045;42.682;23.294;2023-05-02T00:41:09;94962.22;;;13.88;66.48
11971;BME280;6045;42.682;23.294;2023-05-02T00:43:36;94972.59;;;13.96;66.50
11971;BME280;6045;42.682;23.294;2023-05-02T00:46:04;94977.91;;;13.79;66.81
11971;BME280;6045;42.682;23.294;2023-05-02T00:48:31;94976.53;;;13.77;66.92
11971;BME280;6045;42.682;23.294;2023-05-02T00:50:58;94979.59;;;13.68;67.69
11971;BME280;6045;42.682;23.294;2023-05-02T00:53:30;94986.25;;;13.66;67.60
11971;BME280;6045;42.682;23.294;2023-05-02T00:55:57;94978.44;;;13.64;67.71
11971;BME280;6045;42.682;23.294;2023-05-02T00:58:26;94977.78;;;13.57;68.20
11971;BME280;6045;42.682;23.294;2023-05-02T01:01:03;94972.56;;;13.51;68.50
11971;BME280;6045;42.682;23.294;2023-05-02T01:03:40;94970.91;;;13.50;68.34
11971;BME280;6045;42.682;23.294;2023-05-02T01:06:18;94972.28;;;13.52;68.73
11971;BME280;6045;42.682;23.294;2023-05-02T01:08:58;94975.97;;;13.46;69.02
11971;BME280;6045;42.682;23.294;2023-05-02T01:11:33;94975.16;;;13.34;69.25
11971;BME280;6045;42.682;23.294;2023-05-02T01:14:04;94963.41;;;13.35;69.60
11971;BME280;6045;42.682;23.294;2023-05-02T01:16:37;94967.00;;;13.29;69.68
11971;BME280;6045;42.682;23.294;2023-05-02T01:19:08;94958.38;;;13.27;70.11
11971;BME280;6045;42.682;23.294;2023-05-02T01:21:38;94966.44;;;13.27;70.26
11971;BME280;6045;42.682;23.294;2023-05-02T01:24:09;94955.84;;;13.21;70.69
11971;BME280;6045;42.682;23.294;2023-05-02T01:26:46;94956.66;;;13.21;70.50
11971;BME280;6045;42.682;23.294;2023-05-02T01:29:17;94952.59;;;13.19;70.94
11971;BME280;6045;42.682;23.294;2023-05-02T01:31:48;94951.06;;;13.11;71.09
11971;BME280;6045;42.682;23.294;2023-05-02T01:34:19;94950.50;;;13.09;71.73
11971;BME280;6045;42.682;23.294;2023-05-02T01:36:49;94952.13;;;13.10;71.57
11971;BME280;6045;42.682;23.294;2023-05-02T01:39:18;94957.28;;;13.12;71.77
11971;BME280;6045;42.682;23.294;2023-05-02T01:41:48;94958.41;;;13.04;71.64
11971;BME280;6045;42.682;23.294;2023-05-02T01:44:17;94957.84;;;13.02;71.89
11971;BME280;6045;42.682;23.294;2023-05-02T01:46:45;94957.00;;;13.01;72.02
11971;BME280;6045;42.682;23.294;2023-05-02T01:49:12;94955.50;;;12.94;72.02
11971;BME280;6045;42.682;23.294;2023-05-02T01:51:43;94959.72;;;12.90;72.43
11971;BME280;6045;42.682;23.294;2023-05-02T01:54:12;94964.41;;;12.83;72.69
11971;BME280;6045;42.682;23.294;2023-05-02T01:56:40;94963.81;;;12.81;72.70
11971;BME280;6045;42.682;23.294;2023-05-02T01:59:10;94950.28;;;12.76;73.10
11971;BME280;6045;42.682;23.294;2023-05-02T02:01:39;94962.63;;;12.77;72.86
11971;BME280;6045;42.682;23.294;2023-05-02T02:04:08;94958.34;;;12.76;73.18
11971;BME280;6045;42.682;23.294;2023-05-02T02:06:36;94957.16;;;12.72;73.61
11971;BME280;6045;42.682;23.294;2023-05-02T02:09:04;94953.69;;;12.60;73.90
11971;BME280;6045;42.682;23.294;2023-05-02T02:11:34;94955.41;;;12.66;74.03
11971;BME280;6045;42.682;23.294;2023-05-02T02:14:05;94955.53;;;12.71;73.59
11971;BME280;6045;42.682;23.294;2023-05-02T02:16:36;94949.47;;;12.64;73.89
11971;BME280;6045;42.682;23.294;2023-05-02T02:19:08;94949.72;;;12.62;73.77
11971;BME280;6045;42.682;23.294;2023-05-02T02:21:36;94955.53;;;12.59;73.90
11971;BME280;6045;42.682;23.294;2023-05-02T02:24:06;94952.28;;;12.57;74.06
11971;BME280;6045;42.682;23.294;2023-05-02T02:26:34;94956.72;;;12.52;74.19
11971;BME280;6045;42.682;23.294;2023-05-02T02:29:02;94959.06;;;12.60;74.05
11971;BME280;6045;42.682;23.294;2023-05-02T02:31:32;94956.25;;;12.55;74.17
11971;BME280;6045;42.682;23.294;2023-05-02T02:34:00;94961.72;;;12.60;74.16
11971;BME280;6045;42.682;23.294;2023-05-02T02:36:33;94953.31;;;12.56;74.29
11971;BME280;6045;42.682;23.294;2023-05-02T02:39:11;94957.41;;;12.59;74.48
11971;BME280;6045;42.682;23.294;2023-05-02T02:41:47;94963.22;;;12.56;73.93
11971;BME280;6045;42.682;23.294;2023-05-02T02:44:24;94960.44;;;12.51;74.19
11971;BME280;6045;42.682;23.294;2023-05-02T02:47:00;94949.38;;;12.47;74.34
11971;BME280;6045;42.682;23.294;2023-05-02T02:49:37;94966.47;;;12.58;74.04
11971;BME280;6045;42.682;23.294;2023-05-02T02:52:09;94970.22;;;12.57;74.11
11971;BME280;6045;42.682;23.294;2023-05-02T02:54:42;94976.50;;;12.51;74.21
11971;BME280;6045;42.682;23.294;2023-05-02T02:57:15;94969.66;;;12.43;74.71
11971;BME280;6045;42.682;23.294;2023-05-02T02:59:50;94977.56;;;12.38;74.86
11971;BME280;6045;42.682;23.294;2023-05-02T03:02:21;94978.84;;;12.35;74.91
11971;BME280;6045;42.682;23.294;2023-05-02T03:04:52;94982.81;;;12.33;75.13
11971;BME280;6045;42.682;23.294;2023-05-02T03:07:21;94981.66;;;12.41;74.69
11971;BME280;6045;42.682;23.294;2023-05-02T03:09:48;94980.00;;;12.40;74.53
11971;BME280;6045;42.682;23.294;2023-05-02T03:12:15;94992.84;;;12.38;74.94
11971;BME280;6045;42.682;23.294;2023-05-02T03:14:42;94996.09;;;12.40;74.69
11971;BME280;6045;42.682;23.294;2023-05-02T03:17:09;94997.03;;;12.33;74.95
11971;BME280;6045;42.682;23.294;2023-05-02T03:19:36;94997.75;;;12.41;74.91
11971;BME280;6045;42.682;23.294;2023-05-02T03:22:02;94991.44;;;12.47;74.80
11971;BME280;6045;42.682;23.294;2023-05-02T03:24:30;95000.53;;;12.46;74.55
11971;BME280;6045;42.682;23.294;2023-05-02T03:26:58;95000.63;;;12.39;74.69
11971;BME280;6045;42.682;23.294;2023-05-02T03:29:25;94989.00;;;12.45;74.40
11971;BME280;6045;42.682;23.294;2023-05-02T03:31:53;95001.69;;;12.38;74.73
11971;BME280;6045;42.682;23.294;2023-05-02T03:34:19;95005.53;;;12.42;74.65
11971;BME280;6045;42.682;23.294;2023-05-02T03:36:47;95007.28;;;12.36;75.06
11971;BME280;6045;42.682;23.294;2023-05-02T03:39:14;95002.03;;;12.30;75.27
11971;BME280;6045;42.682;23.294;2023-05-02T03:41:42;95002.59;;;12.20;75.70
11971;BME280;6045;42.682;23.294;2023-05-02T03:44:09;95003.78;;;12.24;75.58
11971;BME280;6045;42.682;23.294;2023-05-02T03:46:36;95003.41;;;12.21;76.90
11971;BME280;6045;42.682;23.294;2023-05-02T03:49:02;95020.09;;;12.34;76.78
11971;BME280;6045;42.682;23.294;2023-05-02T03:51:29;95013.13;;;12.45;75.97
11971;BME280;6045;42.682;23.294;2023-05-02T03:53:56;95005.41;;;12.49;76.92
11971;BME280;6045;42.682;23.294;2023-05-02T03:56:23;95001.13;;;12.59;75.90
11971;BME280;6045;42.682;23.294;2023-05-02T03:58:51;95016.84;;;12.56;75.67
11971;BME280;6045;42.682;23.294;2023-05-02T04:01:18;94998.91;;;12.68;76.20
11971;BME280;6045;42.682;23.294;2023-05-02T04:03:45;95001.25;;;12.76;75.76
11971;BME280;6045;42.682;23.294;2023-05-02T04:06:11;95006.81;;;12.86;76.47
11971;BME280;6045;42.682;23.294;2023-05-02T04:08:38;95011.66;;;13.58;89.58
11971;BME280;6045;42.682;23.294;2023-05-02T04:11:05;95011.22;;;14.23;81.84
11971;BME280;6045;42.682;23.294;2023-05-02T04:13:32;95009.66;;;14.55;77.12
11971;BME280;6045;42.682;23.294;2023-05-02T04:16:00;95006.53;;;14.80;71.42
11971;BME280;6045;42.682;23.294;2023-05-02T04:18:26;95007.94;;;14.66;67.49
11971;BME280;6045;42.682;23.294;2023-05-02T04:20:53;95003.03;;;14.46;68.41
11971;BME280;6045;42.682;23.294;2023-05-02T04:23:20;95000.59;;;14.61;72.05
11971;BME280;6045;42.682;23.294;2023-05-02T04:25:50;95001.59;;;14.55;67.31
11971;BME280;6045;42.682;23.294;2023-05-02T04:28:18;95009.06;;;14.53;69.95
11971;BME280;6045;42.682;23.294;2023-05-02T04:30:46;95012.75;;;14.80;67.11
11971;BME280;6045;42.682;23.294;2023-05-02T04:33:14;95007.03;;;14.60;66.73
11971;BME280;6045;42.682;23.294;2023-05-02T04:35:41;95003.03;;;14.63;66.53
11971;BME280;6045;42.682;23.294;2023-05-02T04:38:07;95010.06;;;14.30;67.66
11971;BME280;6045;42.682;23.294;2023-05-02T04:40:34;95006.97;;;14.55;69.48
11971;BME280;6045;42.682;23.294;2023-05-02T04:43:01;95011.72;;;14.48;67.17
11971;BME280;6045;42.682;23.294;2023-05-02T04:45:28;95015.09;;;14.60;70.09
11971;BME280;6045;42.682;23.294;2023-05-02T04:47:55;95019.84;;;14.70;68.14
11971;BME280;6045;42.682;23.294;2023-05-02T04:50:23;95009.72;;;14.77;67.02
11971;BME280;6045;42.682;23.294;2023-05-02T04:52:52;95014.13;;;14.99;66.40
11971;BME280;6045;42.682;23.294;2023-05-02T04:55:19;95024.16;;;14.87;64.95
11971;BME280;6045;42.682;23.294;2023-05-02T04:57:45;95018.69;;;14.82;64.51
11971;BME280;6045;42.682;23.294;2023-05-02T05:00:13;95014.88;;;14.78;64.07
11971;BME280;6045;42.682;23.294;2023-05-02T05:02:39;95010.41;;;14.67;64.74
11971;BME280;6045;42.682;23.294;2023-05-02T05:05:07;95013.66;;;14.69;64.38
11971;BME280;6045;42.682;23.294;2023-05-02T05:07:42;95017.66;;;14.67;63.30
11971;BME280;6045;42.682;23.294;2023-05-02T05:10:10;95009.25;;;14.63;63.63
11971;BME280;6045;42.682;23.294;2023-05-02T05:12:36;95019.34;;;14.56;63.48
11971;BME280;6045;42.682;23.294;2023-05-02T05:15:03;95022.38;;;14.43;63.75
11971;BME280;6045;42.682;23.294;2023-05-02T05:17:31;95013.22;;;14.44;64.45
11971;BME280;6045;42.682;23.294;2023-05-02T05:19:58;95019.84;;;14.53;63.56
11971;BME280;6045;42.682;23.294;2023-05-02T05:22:24;95012.84;;;14.52;64.34
11971;BME280;6045;42.682;23.294;2023-05-02T05:24:53;95021.16;;;14.51;63.77
11971;BME280;6045;42.682;23.294;2023-05-02T05:27:20;95012.41;;;14.60;63.32
11971;BME280;6045;42.682;23.294;2023-05-02T05:29:47;95020.00;;;14.80;63.53
11971;BME280;6045;42.682;23.294;2023-05-02T05:32:14;95015.44;;;14.97;62.47
11971;BME280;6045;42.682;23.294;2023-05-02T05:34:40;95027.31;;;15.01;62.38
11971;BME280;6045;42.682;23.294;2023-05-02T05:37:07;95033.44;;;14.96;62.19
11971;BME280;6045;42.682;23.294;2023-05-02T05:39:34;95032.22;;;14.87;61.29
11971;BME280;6045;42.682;23.294;2023-05-02T05:42:02;95035.56;;;14.94;62.20
11971;BME280;6045;42.682;23.294;2023-05-02T05:44:30;95039.03;;;15.28;61.59
11971;BME280;6045;42.682;23.294;2023-05-02T05:46:57;95031.19;;;15.65;60.50
11971;BME280;6045;42.682;23.294;2023-05-02T05:49:23;95033.75;;;15.98;59.44
11971;BME280;6045;42.682;23.294;2023-05-02T05:51:50;95038.34;;;16.24;58.72
11971;BME280;6045;42.682;23.294;2023-05-02T05:54:17;95039.06;;;16.47;57.62
11971;BME280;6045;42.682;23.294;2023-05-02T05:56:43;95039.91;;;16.47;56.57
11971;BME280;6045;42.682;23.294;2023-05-02T05:59:12;95041.47;;;16.16;56.88
11971;BME280;6045;42.682;23.294;2023-05-02T06:01:38;95042.59;;;16.20;58.21
11971;BME280;6045;42.682;23.294;2023-05-02T06:04:05;95044.13;;;16.38;61.01
11971;BME280;6045;42.682;23.294;2023-05-02T06:06:32;95045.03;;;16.75;57.58
11971;BME280;6045;42.682;23.294;2023-05-02T06:08:59;95047.59;;;16.92;56.07
11971;BME280;6045;42.682;23.294;2023-05-02T06:11:28;95060.59;;;16.95;53.45
11971;BME280;6045;42.682;23.294;2023-05-02T06:13:55;95042.00;;;16.67;55.82
11971;BME280;6045;42.682;23.294;2023-05-02T06:16:23;95047.34;;;16.93;56.26
11971;BME280;6045;42.682;23.294;2023-05-02T06:18:50;95046.31;;;16.99;55.51
11971;BME280;6045;42.682;23.294;2023-05-02T06:21:36;95049.38;;;17.13;54.79
11971;BME280;6045;42.682;23.294;2023-05-02T06:24:04;95044.44;;;17.42;53.64
11971;BME280;6045;42.682;23.294;2023-05-02T06:26:30;95040.03;;;17.72;52.38
11971;BME280;6045;42.682;23.294;2023-05-02T06:28:57;95034.66;;;17.77;53.03
11971;BME280;6045;42.682;23.294;2023-05-02T06:31:25;95047.06;;;17.73;50.26
11971;BME280;6045;42.682;23.294;2023-05-02T06:33:52;95048.13;;;17.67;51.59
11971;BME280;6045;42.682;23.294;2023-05-02T06:36:19;95049.00;;;17.83;51.36
11971;BME280;6045;42.682;23.294;2023-05-02T06:38:46;95044.03;;;18.27;51.05
11971;BME280;6045;42.682;23.294;2023-05-02T06:41:13;95041.41;;;18.62;48.61
11971;BME280;6045;42.682;23.294;2023-05-02T06:43:40;95048.19;;;18.80;47.96
11971;BME280;6045;42.682;23.294;2023-05-02T06:46:07;95040.31;;;18.63;48.50
11971;BME280;6045;42.682;23.294;2023-05-02T06:48:35;95042.78;;;18.65;48.62
11971;BME280;6045;42.682;23.294;2023-05-02T06:51:02;95048.19;;;18.65;49.68
11971;BME280;6045;42.682;23.294;2023-05-02T06:53:29;95039.78;;;18.66;48.50
11971;BME280;6045;42.682;23.294;2023-05-02T06:55:56;95039.25;;;19.15;46.83
11971;BME280;6045;42.682;23.294;2023-05-02T06:58:23;95040.59;;;19.37;46.05
11971;BME280;6045;42.682;23.294;2023-05-02T07:00:50;95032.16;;;19.44;45.60
11971;BME280;6045;42.682;23.294;2023-05-02T07:03:16;95042.50;;;19.22;45.92
11971;BME280;6045;42.682;23.294;2023-05-02T07:05:45;95040.53;;;19.57;46.49
11971;BME280;6045;42.682;23.294;2023-05-02T07:08:11;95033.16;;;19.83;44.16
11971;BME280;6045;42.682;23.294;2023-05-02T07:10:38;95029.34;;;19.84;44.32
11971;BME280;6045;42.682;23.294;2023-05-02T07:13:05;95037.19;;;19.86;44.55
11971;BME280;6045;42.682;23.294;2023-05-02T07:15:31;95046.84;;;20.12;42.99
11971;BME280;6045;42.682;23.294;2023-05-02T07:17:58;95050.34;;;19.23;47.32
11971;BME280;6045;42.682;23.294;2023-05-02T07:20:25;95048.72;;;19.02;49.95
11971;BME280;6045;42.682;23.294;2023-05-02T07:22:53;95047.91;;;19.47;48.04
11971;BME280;6045;42.682;23.294;2023-05-02T07:25:20;95048.81;;;20.06;46.53
11971;BME280;6045;42.682;23.294;2023-05-02T07:27:47;95046.13;;;20.55;43.97
11971;BME280;6045;42.682;23.294;2023-05-02T07:30:13;95037.94;;;20.60;43.89
11971;BME280;6045;42.682;23.294;2023-05-02T07:32:40;95042.69;;;20.39;42.21
11971;BME280;6045;42.682;23.294;2023-05-02T07:35:07;95051.84;;;19.90;44.18
11971;BME280;6045;42.682;23.294;2023-05-02T07:37:34;95049.13;;;19.90;43.22
11971;BME280;6045;42.682;23.294;2023-05-02T07:40:04;95057.31;;;19.69;43.55
11971;BME280;6045;42.682;23.294;2023-05-02T07:42:32;95052.72;;;19.65;44.24
11971;BME280;6045;42.682;23.294;2023-05-02T07:44:59;95043.41;;;19.96;44.02
11971;BME280;6045;42.682;23.294;2023-05-02T07:47:25;95062.31;;;20.26;42.48
11971;BME280;6045;42.682;23.294;2023-05-02T07:49:54;95053.63;;;20.19;42.36
11971;BME280;6045;42.682;23.294;2023-05-02T07:52:21;95061.03;;;20.63;43.22
11971;BME280;6045;42.682;23.294;2023-05-02T07:54:48;95054.22;;;20.99;41.91
11971;BME280;6045;42.682;23.294;2023-05-02T07:57:16;95057.06;;;21.23;40.46
11971;BME280;6045;42.682;23.294;2023-05-02T07:59:43;95045.38;;;21.51;39.73
11971;BME280;6045;42.682;23.294;2023-05-02T08:02:10;95053.72;;;20.92;40.96
11971;BME280;6045;42.682;23.294;2023-05-02T08:04:38;95049.72;;;21.23;42.34
11971;BME280;6045;42.682;23.294;2023-05-02T08:07:04;95045.84;;;21.81;41.16
11971;BME280;6045;42.682;23.294;2023-05-02T08:09:31;95042.03;;;21.59;38.90
11971;BME280;6045;42.682;23.294;2023-05-02T08:11:58;95045.09;;;21.52;40.46
11971;BME280;6045;42.682;23.294;2023-05-02T08:14:29;95042.31;;;21.81;39.83
11971;BME280;6045;42.682;23.294;2023-05-02T08:16:55;95052.31;;;22.14;39.29
11971;BME280;6045;42.682;23.294;2023-05-02T08:19:22;95052.66;;;22.08;37.90
11971;BME280;6045;42.682;23.294;2023-05-02T08:21:49;95044.19;;;21.33;39.76
11971;BME280;6045;42.682;23.294;2023-05-02T08:24:16;95040.00;;;20.78;42.10
11971;BME280;6045;42.682;23.294;2023-05-02T08:26:42;95049.69;;;20.51;43.41
11971;BME280;6045;42.682;23.294;2023-05-02T08:29:09;95046.56;;;20.23;42.12
11971;BME280;6045;42.682;23.294;2023-05-02T08:31:38;95042.00;;;20.09;42.40
11971;BME280;6045;42.682;23.294;2023-05-02T08:34:05;95040.22;;;19.74;43.97
11971;BME280;6045;42.682;23.294;2023-05-02T08:36:32;95044.03;;;19.73;44.87
11971;BME280;6045;42.682;23.294;2023-05-02T08:38:59;95048.97;;;19.41;43.52
11971;BME280;6045;42.682;23.294;2023-05-02T08:41:28;95049.81;;;19.26;43.16
11971;BME280;6045;42.682;23.294;2023-05-02T08:43:56;95054.16;;;19.37;44.34
11971;BME280;6045;42.682;23.294;2023-05-02T08:46:22;95044.09;;;19.48;43.67
11971;BME280;6045;42.682;23.294;2023-05-02T08:48:52;95044.66;;;19.50;43.47
11971;BME280;6045;42.682;23.294;2023-05-02T08:51:22;95037.00;;;19.62;43.04
11971;BME280;6045;42.682;23.294;2023-05-02T08:53:51;95038.09;;;19.71;44.07
11971;BME280;6045;42.682;23.294;2023-05-02T08:56:18;95039.63;;;19.97;43.10
11971;BME280;6045;42.682;23.294;2023-05-02T08:58:45;95036.66;;;20.48;42.28
11971;BME280;6045;42.682;23.294;2023-05-02T09:01:14;95033.44;;;20.84;40.18
11971;BME280;6045;42.682;23.294;2023-05-02T09:03:42;95033.19;;;20.81;40.30
11971;BME280;6045;42.682;23.294;2023-05-02T09:06:12;95027.66;;;20.91;41.84
11971;BME280;6045;42.682;23.294;2023-05-02T09:08:42;95017.44;;;20.78;41.26
11971;BME280;6045;42.682;23.294;2023-05-02T09:11:09;95027.63;;;20.57;40.96
11971;BME280;6045;42.682;23.294;2023-05-02T09:13:38;95032.88;;;20.43;40.20
11971;BME280;6045;42.682;23.294;2023-05-02T09:16:06;95020.41;;;20.42;40.03
11971;BME280;6045;42.682;23.294;2023-05-02T09:18:35;95026.47;;;20.29;40.38
11971;BME280;6045;42.682;23.294;2023-05-02T09:21:04;95024.06;;;20.23;40.19
11971;BME280;6045;42.682;23.294;2023-05-02T09:23:39;95022.41;;;20.22;41.30
11971;BME280;6045;42.682;23.294;2023-05-02T09:26:14;95020.41;;;20.37;40.69
11971;BME280;6045;42.682;23.294;2023-05-02T09:28:43;95028.69;;;20.07;40.95
11971;BME280;6045;42.682;23.294;2023-05-02T09:31:11;95022.53;;;19.97;41.03
11971;BME280;6045;42.682;23.294;2023-05-02T09:33:39;95021.38;;;20.08;40.45
11971;BME280;6045;42.682;23.294;2023-05-02T09:36:07;95017.19;;;20.30;40.72
11971;BME280;6045;42.682;23.294;2023-05-02T09:38:34;95021.72;;;20.50;39.56
11971;BME280;6045;42.682;23.294;2023-05-02T09:41:03;95020.16;;;20.39;38.70
11971;BME280;6045;42.682;23.294;2023-05-02T09:43:30;95020.22;;;20.29;39.19
11971;BME280;6045;42.682;23.294;2023-05-02T09:45:58;95012.09;;;20.24;41.17
11971;BME280;6045;42.682;23.294;2023-05-02T09:48:27;95003.19;;;20.08;40.15
11971;BME280;6045;42.682;23.294;2023-05-02T09:50:54;94999.34;;;20.24;41.65
11971;BME280;6045;42.682;23.294;2023-05-02T09:53:21;95001.41;;;20.37;39.78
11971;BME280;6045;42.682;23.294;2023-05-02T09:55:58;95002.16;;;20.48;39.18
11971;BME280;6045;42.682;23.294;2023-05-02T09:58:26;94999.28;;;20.34;39.32
11971;BME280;6045;42.682;23.294;2023-05-02T10:00:56;94995.22;;;20.32;39.57
11971;BME280;6045;42.682;23.294;2023-05-02T10:03:24;94994.91;;;20.38;38.88
11971;BME280;6045;42.682;23.294;2023-05-02T10:05:51;94990.97;;;20.55;39.98
11971;BME280;6045;42.682;23.294;2023-05-02T10:08:20;94994.03;;;20.48;41.01
11971;BME280;6045;42.682;23.294;2023-05-02T10:10:50;94990.31;;;20.34;38.02
11971;BME280;6045;42.682;23.294;2023-05-02T10:13:19;94991.13;;;20.34;37.40
11971;BME280;6045;42.682;23.294;2023-05-02T10:15:50;94978.50;;;20.54;38.54
11971;BME280;6045;42.682;23.294;2023-05-02T10:18:26;94980.00;;;20.70;37.26
11971;BME280;6045;42.682;23.294;2023-05-02T10:20:56;94981.75;;;20.89;37.55
11971;BME280;6045;42.682;23.294;2023-05-02T10:23:25;94979.19;;;21.03;38.83
11971;BME280;6045;42.682;23.294;2023-05-02T10:25:52;94981.00;;;21.41;37.75
11971;BME280;6045;42.682;23.294;2023-05-02T10:28:19;94967.53;;;21.78;38.86
11971;BME280;6045;42.682;23.294;2023-05-02T10:30:48;94964.81;;;22.21;34.77
11971;BME280;6045;42.682;23.294;2023-05-02T10:33:16;94966.97;;;22.80;33.23
11971;BME280;6045;42.682;23.294;2023-05-02T10:35:44;94957.13;;;23.11;32.02
11971;BME280;6045;42.682;23.294;2023-05-02T10:38:13;94960.06;;;23.47;31.86
11971;BME280;6045;42.682;23.294;2023-05-02T10:40:41;94955.81;;;23.95;33.51
11971;BME280;6045;42.682;23.294;2023-05-02T10:43:13;94955.44;;;23.88;32.53
11971;BME280;6045;42.682;23.294;2023-05-02T10:45:41;94951.97;;;23.96;31.36
11971;BME280;6045;42.682;23.294;2023-05-02T10:48:19;94955.41;;;24.15;31.34
11971;BME280;6045;42.682;23.294;2023-05-02T10:50:48;94948.53;;;24.54;30.81
11971;BME280;6045;42.682;23.294;2023-05-02T10:53:29;94956.53;;;24.86;29.23
11971;BME280;6045;42.682;23.294;2023-05-02T10:56:11;94951.75;;;24.91;29.34
11971;BME280;6045;42.682;23.294;2023-05-02T10:58:38;94949.78;;;25.36;29.09
11971;BME280;6045;42.682;23.294;2023-05-02T11:01:33;94947.72;;;24.89;28.13
11971;BME280;6045;42.682;23.294;2023-05-02T11:04:07;94945.91;;;24.71;29.21
11971;BME280;6045;42.682;23.294;2023-05-02T11:06:35;94938.91;;;24.20;29.34
11971;BME280;6045;42.682;23.294;2023-05-02T11:09:32;94944.50;;;24.15;31.05
11971;BME280;6045;42.682;23.294;2023-05-02T11:12:00;94931.44;;;24.12;30.21
11971;BME280;6045;42.682;23.294;2023-05-02T11:14:43;94934.38;;;23.89;30.11
11971;BME280;6045;42.682;23.294;2023-05-02T11:17:11;94940.56;;;23.67;30.75
11971;BME280;6045;42.682;23.294;2023-05-02T11:22:53;94932.34;;;23.40;32.60
11971;BME280;6045;42.682;23.294;2023-05-02T11:25:34;94928.31;;;23.92;31.15
11971;BME280;6045;42.682;23.294;2023-05-02T11:28:03;94923.78;;;24.36;31.41
11971;BME280;6045;42.682;23.294;2023-05-02T11:30:40;94928.03;;;24.65;31.71
11971;BME280;6045;42.682;23.294;2023-05-02T11:33:14;94916.78;;;24.80;31.66
11971;BME280;6045;42.682;23.294;2023-05-02T11:35:46;94922.31;;;24.03;30.13
11971;BME280;6045;42.682;23.294;2023-05-02T11:38:19;94920.94;;;23.78;30.90
11971;BME280;6045;42.682;23.294;2023-05-02T11:40:50;94919.25;;;24.32;32.17
11971;BME280;6045;42.682;23.294;2023-05-02T11:43:19;94912.25;;;24.62;29.49
11971;BME280;6045;42.682;23.294;2023-05-02T11:45:47;94898.16;;;24.90;30.21
11971;BME280;6045;42.682;23.294;2023-05-02T11:48:16;94895.69;;;25.11;30.25
11971;BME280;6045;42.682;23.294;2023-05-02T11:50:44;94895.13;;;25.23;28.65
11971;BME280;6045;42.682;23.294;2023-05-02T11:53:12;94908.72;;;25.36;31.47
11971;BME280;6045;42.682;23.294;2023-05-02T11:55:48;94899.97;;;25.56;30.32
11971;BME280;6045;42.682;23.294;2023-05-02T11:58:17;94894.84;;;25.72;29.94
11971;BME280;6045;42.682;23.294;2023-05-02T12:00:45;94900.06;;;25.43;28.89
11971;BME280;6045;42.682;23.294;2023-05-02T12:03:28;94888.28;;;24.81;29.60
11971;BME280;6045;42.682;23.294;2023-05-02T12:05:56;94877.44;;;24.31;29.63
11971;BME280;6045;42.682;23.294;2023-05-02T12:08:24;94886.13;;;24.47;30.45
11971;BME280;6045;42.682;23.294;2023-05-02T12:10:55;94875.59;;;24.40;29.63
11971;BME280;6045;42.682;23.294;2023-05-02T12:13:25;94872.97;;;23.86;30.57
11971;BME280;6045;42.682;23.294;2023-05-02T12:15:53;94876.63;;;23.95;30.93
11971;BME280;6045;42.682;23.294;2023-05-02T12:18:22;94862.88;;;23.87;31.01
11971;BME280;6045;42.682;23.294;2023-05-02T12:20:50;94862.81;;;23.78;30.93
11971;BME280;6045;42.682;23.294;2023-05-02T12:23:35;94860.22;;;23.46;31.39
11971;BME280;6045;42.682;23.294;2023-05-02T12:26:17;94870.59;;;23.44;31.64
11971;BME280;6045;42.682;23.294;2023-05-02T12:28:48;94858.88;;;23.57;32.05
11971;BME280;6045;42.682;23.294;2023-05-02T12:31:15;94855.66;;;23.55;31.09
11971;BME280;6045;42.682;23.294;2023-05-02T12:33:42;94851.41;;;23.49;31.81
11971;BME280;6045;42.682;23.294;2023-05-02T12:36:09;94852.44;;;23.53;30.78
11971;BME280;6045;42.682;23.294;2023-05-02T12:38:36;94837.47;;;23.86;30.51
11971;BME280;6045;42.682;23.294;2023-05-02T12:41:02;94840.91;;;23.92;29.28
11971;BME280;6045;42.682;23.294;2023-05-02T12:43:45;94828.66;;;23.67;30.20
11971;BME280;6045;42.682;23.294;2023-05-02T12:46:12;94822.88;;;23.68;31.07
11971;BME280;6045;42.682;23.294;2023-05-02T12:48:39;94831.06;;;23.68;30.62
11971;BME280;6045;42.682;23.294;2023-05-02T12:51:05;94821.91;;;23.87;29.93
11971;BME280;6045;42.682;23.294;2023-05-02T12:53:43;94817.34;;;23.96;29.84
11971;BME280;6045;42.682;23.294;2023-05-02T12:56:12;94821.56;;;23.66;29.27
11971;BME280;6045;42.682;23.294;2023-05-02T12:58:40;94821.28;;;23.27;30.41
11971;BME280;6045;42.682;23.294;2023-05-02T13:01:09;94805.84;;;23.22;30.61
11971;BME280;6045;42.682;23.294;2023-05-02T13:03:36;94813.50;;;23.20;29.89
11971;BME280;6045;42.682;23.294;2023-05-02T13:06:03;94828.34;;;23.14;30.93
11971;BME280;6045;42.682;23.294;2023-05-02T13:08:31;94820.19;;;23.00;32.29
11971;BME280;6045;42.682;23.294;2023-05-02T13:10:58;94820.22;;;22.68;30.70
11971;BME280;6045;42.682;23.294;2023-05-02T13:13:24;94814.06;;;22.63;31.58